Millboro, Virginia
Current Conditions -  °F | °C
As of 11:35 AM on Friday 24 Oct 2014 (Local Time) from KHSP Reporting Station
Clear Clear  
Wind Chill: 41°   Ceiling: Unl
Heat Index: 47°   Visibility: 10mi
Dew Point: 38°   Wind: 14mph
Humidity: 72%   Direction: 290°WNW
Pressure: 30.05"   Gusts: 21mph
Location:  37.98°N, 79.6°W
Report Text: KHSP 241535Z AUTO 29012G18KT 10SM CLR 08/03 A3005 RMK AO2 T00810034
Loading
Personal Weather Stations






























Interactive Weather Map
Tropical Storm Tracking
New forecast layout! Learn more

10-Day Weather Forecast

Advertisements
Track Severe Weather on mobile